Time;durP1;ratioP1;P1;durP2;ratioP2;P2;SDS_P1;SDS_P2;PMS_P1;PMS_P2;Temp;Humidity;BMP_temperature;BMP_pressure;BME280_temperature;BME280_humidity;BME280_pressure;Samples;Min_cycle;Max_cycle;Signal;HPM_P1;HPM_P2
2021/07/18 00:00:53;;;;;;;19.25;7.30;;;;;;;;;;5034417;28;20399;-59
2021/07/18 00:03:21;;;;;;;19.40;6.18;;;;;;;;;;5023538;28;20028;-60
2021/07/18 00:05:49;;;;;;;20.98;6.72;;;;;;;;;;5033751;28;20044;-60
2021/07/18 00:08:17;;;;;;;14.52;6.20;;;;;;;;;;5033561;28;20130;-60
2021/07/18 00:10:45;;;;;;;20.45;6.40;;;;;;;;;;5037248;28;20107;-59
2021/07/18 00:13:13;;;;;;;18.52;6.30;;;;;;;;;;5033526;28;20063;-59
2021/07/18 00:15:41;;;;;;;15.43;6.45;;;;;;;;;;5032150;28;20052;-61
2021/07/18 00:18:10;;;;;;;19.48;6.28;;;;;;;;;;5033946;28;20091;-59
2021/07/18 00:20:37;;;;;;;22.25;6.95;;;;;;;;;;5050111;28;20041;-60
2021/07/18 00:23:07;;;;;;;15.50;5.65;;;;;;;;;;5035335;28;20037;-60
2021/07/18 00:25:33;;;;;;;15.13;5.57;;;;;;;;;;5035224;28;20115;-60
2021/07/18 00:27:59;;;;;;;18.92;6.05;;;;;;;;;;5031805;28;20033;-58
2021/07/18 00:30:24;;;;;;;11.75;5.82;;;;;;;;;;5032957;28;20077;-60
2021/07/18 00:32:50;;;;;;;17.35;6.30;;;;;;;;;;5033175;28;21111;-60
2021/07/18 00:35:15;;;;;;;13.57;6.00;;;;;;;;;;5034135;28;20052;-61
2021/07/18 00:37:40;;;;;;;9.93;5.88;;;;;;;;;;5014858;28;22076;-61
2021/07/18 00:40:08;;;;;;;12.38;5.40;;;;;;;;;;5033778;28;20039;-59
2021/07/18 00:46:11;;;;;;;13.85;5.68;;;;;;;;;;5033093;28;20075;-60
2021/07/18 00:48:37;;;;;;;14.07;6.20;;;;;;;;;;5032440;28;20133;-60
2021/07/18 00:51:02;;;;;;;14.40;5.97;;;;;;;;;;5026485;28;20036;-59
2021/07/18 00:53:30;;;;;;;22.50;7.38;;;;;;;;;;5034999;28;20066;-60
2021/07/18 00:56:24;;;;;;;13.88;5.63;;;;;;;;;;5031008;28;20056;-59
2021/07/18 00:58:54;;;;;;;14.77;5.97;;;;;;;;;;5022524;28;20033;-59
2021/07/18 01:01:21;;;;;;;25.55;6.95;;;;;;;;;;5034757;28;20040;-59
2021/07/18 01:03:51;;;;;;;15.05;5.38;;;;;;;;;;5035595;28;20074;-60
2021/07/18 01:06:19;;;;;;;12.75;6.18;;;;;;;;;;5034700;28;20037;-60
2021/07/18 01:08:47;;;;;;;18.58;6.30;;;;;;;;;;5034144;28;21972;-59
2021/07/18 01:11:13;;;;;;;16.13;5.30;;;;;;;;;;5034729;28;20044;-59
2021/07/18 01:13:41;;;;;;;9.93;5.00;;;;;;;;;;5031179;28;21648;-60
2021/07/18 01:16:06;;;;;;;16.50;5.88;;;;;;;;;;5032764;28;20071;-59
2021/07/18 01:18:32;;;;;;;8.30;5.05;;;;;;;;;;5021828;28;20053;-59
2021/07/18 01:21:02;;;;;;;10.25;4.90;;;;;;;;;;5035458;28;20052;-61
2021/07/18 01:23:30;;;;;;;14.13;4.85;;;;;;;;;;5033524;28;20143;-60
2021/07/18 01:25:58;;;;;;;18.15;5.28;;;;;;;;;;5040124;28;20043;-60
2021/07/18 01:28:24;;;;;;;10.75;5.07;;;;;;;;;;5037639;28;20041;-60
2021/07/18 01:30:52;;;;;;;12.50;5.07;;;;;;;;;;5037656;28;20098;-60
2021/07/18 01:33:22;;;;;;;15.98;6.15;;;;;;;;;;5038816;28;20035;-59
2021/07/18 01:35:47;;;;;;;21.40;5.40;;;;;;;;;;5023186;28;20092;-60
2021/07/18 01:38:16;;;;;;;13.13;4.90;;;;;;;;;;5036953;28;20036;-60
2021/07/18 01:40:42;;;;;;;12.00;5.15;;;;;;;;;;5053330;28;20584;-59
2021/07/18 01:43:12;;;;;;;9.88;5.03;;;;;;;;;;5022703;28;20028;-60
2021/07/18 01:45:40;;;;;;;11.70;5.35;;;;;;;;;;5049242;28;20040;-60
2021/07/18 01:48:06;;;;;;;10.65;4.88;;;;;;;;;;5052109;28;20557;-59
2021/07/18 01:50:34;;;;;;;10.30;5.13;;;;;;;;;;5046618;28;20113;-59
2021/07/18 01:53:03;;;;;;;13.80;5.18;;;;;;;;;;5011639;28;20091;-59
2021/07/18 01:55:29;;;;;;;13.48;4.57;;;;;;;;;;5036602;28;21997;-60
2021/07/18 01:57:54;;;;;;;9.10;4.88;;;;;;;;;;5037074;28;20060;-59
2021/07/18 02:00:22;;;;;;;12.40;5.10;;;;;;;;;;5037688;28;20087;-60
2021/07/18 02:02:52;;;;;;;8.43;4.68;;;;;;;;;;5036434;28;22664;-60
2021/07/18 02:05:22;;;;;;;13.05;4.93;;;;;;;;;;5035998;28;20197;-60
2021/07/18 02:07:48;;;;;;;12.15;5.20;;;;;;;;;;5052489;28;20519;-59
2021/07/18 02:10:16;;;;;;;9.60;5.47;;;;;;;;;;5037252;28;20017;-59
2021/07/18 02:12:42;;;;;;;11.10;5.10;;;;;;;;;;5037270;28;20116;-59
2021/07/18 02:15:10;;;;;;;9.95;4.57;;;;;;;;;;5036949;28;20024;-60
2021/07/18 02:17:36;;;;;;;13.93;5.40;;;;;;;;;;5020696;28;20174;-60
2021/07/18 02:20:08;;;;;;;13.50;5.00;;;;;;;;;;5037535;28;20024;-60
2021/07/18 02:22:53;;;;;;;16.00;5.32;;;;;;;;;;5037633;28;20115;-60
2021/07/18 02:25:22;;;;;;;13.25;6.00;;;;;;;;;;5040414;28;20037;-59
2021/07/18 02:27:50;;;;;;;11.27;4.90;;;;;;;;;;5035175;28;20036;-61
2021/07/18 02:30:19;;;;;;;12.77;4.93;;;;;;;;;;5035021;28;20043;-60
2021/07/18 02:32:53;;;;;;;15.10;5.60;;;;;;;;;;5037383;28;20103;-59
2021/07/18 02:35:21;;;;;;;16.75;6.43;;;;;;;;;;5044346;28;20072;-59
2021/07/18 02:37:47;;;;;;;15.13;5.47;;;;;;;;;;5037941;28;20033;-62
2021/07/18 02:40:17;;;;;;;16.52;5.55;;;;;;;;;;5035345;28;20025;-59
2021/07/18 02:42:46;;;;;;;13.07;5.10;;;;;;;;;;5036362;28;20071;-61
2021/07/18 02:45:13;;;;;;;11.07;5.68;;;;;;;;;;5033902;28;20491;-60
2021/07/18 02:47:42;;;;;;;13.88;5.82;;;;;;;;;;5051418;28;20122;-59
2021/07/18 02:50:11;;;;;;;12.15;5.53;;;;;;;;;;5040093;28;20056;-61
2021/07/18 02:52:36;;;;;;;9.55;5.20;;;;;;;;;;5037525;28;20124;-60
2021/07/18 02:55:06;;;;;;;17.13;5.88;;;;;;;;;;5039589;28;20044;-59
2021/07/18 02:57:34;;;;;;;14.43;5.80;;;;;;;;;;5034889;28;20028;-58
2021/07/18 03:00:00;;;;;;;15.23;6.13;;;;;;;;;;5041812;28;20150;-59
2021/07/18 03:02:26;;;;;;;17.50;5.85;;;;;;;;;;5052005;28;22034;-59
2021/07/18 03:04:52;;;;;;;12.93;5.30;;;;;;;;;;5035882;28;20017;-59
2021/07/18 03:07:17;;;;;;;13.10;6.57;;;;;;;;;;5037215;28;20044;-60
2021/07/18 03:09:45;;;;;;;17.45;6.35;;;;;;;;;;5024930;28;20033;-59
2021/07/18 03:12:12;;;;;;;20.92;8.15;;;;;;;;;;5018829;28;20041;-60
2021/07/18 03:14:43;;;;;;;13.40;6.28;;;;;;;;;;5016618;28;20017;-60
2021/07/18 03:17:10;;;;;;;34.92;6.97;;;;;;;;;;5036335;28;20132;-59
2021/07/18 03:19:37;;;;;;;48.58;6.45;;;;;;;;;;5033804;28;20587;-59
2021/07/18 03:22:05;;;;;;;63.50;6.85;;;;;;;;;;5036307;28;20028;-60
2021/07/18 03:24:33;;;;;;;29.83;7.00;;;;;;;;;;5024010;28;20467;-59
2021/07/18 03:26:58;;;;;;;32.53;6.88;;;;;;;;;;5020721;28;20024;-60
2021/07/18 03:29:26;;;;;;;38.90;6.82;;;;;;;;;;5036034;28;20029;-59
2021/07/18 03:31:52;;;;;;;39.58;6.80;;;;;;;;;;5036163;28;20074;-61
2021/07/18 03:34:17;;;;;;;41.58;6.68;;;;;;;;;;5031684;28;20040;-60
2021/07/18 03:36:45;;;;;;;33.42;6.35;;;;;;;;;;5034169;28;20033;-60
2021/07/18 03:39:12;;;;;;;68.80;7.40;;;;;;;;;;5036253;28;20029;-60
2021/07/18 03:41:40;;;;;;;32.95;6.32;;;;;;;;;;5049759;28;20072;-59
2021/07/18 03:44:13;;;;;;;16.52;6.00;;;;;;;;;;5005367;28;20849;-59
2021/07/18 03:46:41;;;;;;;26.30;6.20;;;;;;;;;;5034043;28;20032;-59
2021/07/18 03:49:08;;;;;;;17.13;5.38;;;;;;;;;;5035497;28;20028;-60
2021/07/18 03:51:36;;;;;;;15.90;5.60;;;;;;;;;;5037931;28;20037;-60
2021/07/18 03:54:02;;;;;;;21.13;6.57;;;;;;;;;;5035185;28;20037;-59
2021/07/18 03:56:31;;;;;;;11.60;5.78;;;;;;;;;;5037305;28;20025;-59
2021/07/18 03:58:57;;;;;;;12.95;5.85;;;;;;;;;;5033702;28;20051;-60
2021/07/18 04:01:22;;;;;;;12.57;5.50;;;;;;;;;;5034728;28;20056;-59
2021/07/18 04:03:52;;;;;;;10.85;5.40;;;;;;;;;;5033532;28;20025;-59
2021/07/18 04:06:20;;;;;;;11.52;5.90;;;;;;;;;;5050876;28;20032;-60
2021/07/18 04:08:46;;;;;;;17.48;5.40;;;;;;;;;;5034026;28;20063;-59
2021/07/18 04:11:14;;;;;;;13.68;5.70;;;;;;;;;;5023107;28;21102;-61
2021/07/18 04:13:39;;;;;;;10.20;5.45;;;;;;;;;;5012813;28;20363;-59
2021/07/18 04:16:05;;;;;;;10.82;5.75;;;;;;;;;;5035690;28;20033;-60
2021/07/18 04:18:31;;;;;;;10.85;5.47;;;;;;;;;;5031845;28;20115;-58
2021/07/18 04:20:59;;;;;;;9.18;5.30;;;;;;;;;;5051181;28;20091;-62
2021/07/18 04:23:27;;;;;;;10.20;4.80;;;;;;;;;;5038346;28;20039;-59
2021/07/18 04:25:55;;;;;;;7.80;4.22;;;;;;;;;;5033156;28;20095;-60
2021/07/18 04:28:23;;;;;;;10.63;5.40;;;;;;;;;;5050083;28;20829;-59
2021/07/18 04:30:49;;;;;;;8.30;4.60;;;;;;;;;;5035928;28;20033;-59
2021/07/18 04:33:17;;;;;;;8.18;4.93;;;;;;;;;;5033599;28;20044;-60
2021/07/18 04:35:45;;;;;;;11.15;5.30;;;;;;;;;;5035476;28;20024;-60
2021/07/18 04:38:10;;;;;;;9.55;5.03;;;;;;;;;;5030487;28;20072;-61
2021/07/18 04:40:36;;;;;;;13.02;4.65;;;;;;;;;;5034995;28;20040;-61
2021/07/18 04:43:06;;;;;;;9.45;5.03;;;;;;;;;;5032666;28;20040;-60
2021/07/18 04:45:32;;;;;;;8.38;4.80;;;;;;;;;;5033717;28;20036;-59
2021/07/18 04:47:58;;;;;;;13.93;4.28;;;;;;;;;;5035357;28;20033;-59
2021/07/18 04:50:25;;;;;;;6.03;3.92;;;;;;;;;;5033876;28;20033;-60
2021/07/18 04:52:54;;;;;;;10.63;4.70;;;;;;;;;;5034183;28;20033;-60
2021/07/18 04:55:22;;;;;;;7.70;4.28;;;;;;;;;;5035421;28;20565;-59
2021/07/18 04:57:53;;;;;;;10.70;4.18;;;;;;;;;;5032654;28;20130;-59
2021/07/18 05:00:21;;;;;;;10.00;4.93;;;;;;;;;;5035314;28;21024;-59
2021/07/18 05:02:52;;;;;;;10.13;3.75;;;;;;;;;;5037821;28;20662;-60
2021/07/18 05:05:18;;;;;;;8.30;4.75;;;;;;;;;;5038644;28;20101;-63
2021/07/18 05:07:54;;;;;;;11.52;4.55;;;;;;;;;;5035890;28;20037;-61
2021/07/18 05:10:23;;;;;;;8.10;4.40;;;;;;;;;;5038958;28;20816;-61
2021/07/18 05:12:52;;;;;;;11.82;4.82;;;;;;;;;;5025639;28;20032;-59
2021/07/18 05:15:19;;;;;;;6.93;4.22;;;;;;;;;;5052646;28;22179;-60
2021/07/18 05:17:44;;;;;;;9.48;4.50;;;;;;;;;;5037306;28;20052;-60
2021/07/18 05:20:16;;;;;;;5.93;3.63;;;;;;;;;;5037030;28;20163;-60
2021/07/18 05:22:44;;;;;;;9.13;4.18;;;;;;;;;;5041922;28;20546;-61
2021/07/18 05:25:10;;;;;;;7.10;4.20;;;;;;;;;;5036603;28;20066;-60
2021/07/18 05:27:39;;;;;;;11.50;4.13;;;;;;;;;;5038082;28;20124;-60
2021/07/18 05:30:07;;;;;;;8.68;4.30;;;;;;;;;;5038188;28;20025;-61
2021/07/18 05:32:32;;;;;;;8.23;3.63;;;;;;;;;;5036584;28;20033;-60
2021/07/18 05:35:03;;;;;;;5.93;3.78;;;;;;;;;;5035571;28;20036;-61
2021/07/18 05:37:31;;;;;;;8.82;3.85;;;;;;;;;;5038513;28;20060;-61
2021/07/18 05:39:56;;;;;;;8.52;3.00;;;;;;;;;;5043304;28;20032;-61
2021/07/18 05:42:22;;;;;;;9.50;3.60;;;;;;;;;;5038194;28;21263;-61
2021/07/18 05:44:47;;;;;;;6.20;3.45;;;;;;;;;;5035372;28;20033;-60
2021/07/18 05:47:13;;;;;;;7.20;3.03;;;;;;;;;;5036000;28;20492;-60
2021/07/18 05:49:38;;;;;;;8.20;3.58;;;;;;;;;;5037963;28;20024;-60
2021/07/18 05:52:07;;;;;;;8.05;3.67;;;;;;;;;;5037393;28;20153;-61
2021/07/18 05:54:32;;;;;;;9.05;3.42;;;;;;;;;;5034342;28;20033;-60
2021/07/18 05:57:00;;;;;;;4.95;2.85;;;;;;;;;;5021219;28;20123;-60
2021/07/18 05:59:25;;;;;;;8.93;3.42;;;;;;;;;;5035055;28;20125;-60
2021/07/18 06:01:51;;;;;;;5.10;3.10;;;;;;;;;;5041712;28;20923;-59
2021/07/18 06:04:18;;;;;;;4.43;3.08;;;;;;;;;;5035447;28;20177;-61
2021/07/18 06:06:45;;;;;;;10.20;3.67;;;;;;;;;;5038215;28;20127;-60
2021/07/18 06:09:13;;;;;;;7.25;3.30;;;;;;;;;;5036023;28;20054;-60
2021/07/18 06:11:39;;;;;;;4.93;3.05;;;;;;;;;;5034070;28;20075;-61
2021/07/18 06:14:04;;;;;;;10.38;3.83;;;;;;;;;;5036420;28;20028;-60
2021/07/18 06:16:29;;;;;;;7.00;3.13;;;;;;;;;;5037134;28;20128;-60
2021/07/18 06:18:55;;;;;;;5.53;2.80;;;;;;;;;;5035287;28;20049;-60
2021/07/18 06:21:23;;;;;;;6.80;2.80;;;;;;;;;;5052653;28;20033;-60
2021/07/18 06:23:50;;;;;;;5.18;2.85;;;;;;;;;;5036012;28;20032;-60
2021/07/18 06:26:16;;;;;;;7.35;2.75;;;;;;;;;;5036725;28;20040;-60
2021/07/18 06:28:42;;;;;;;6.93;2.88;;;;;;;;;;5036368;28;20503;-60
2021/07/18 06:31:10;;;;;;;9.07;3.38;;;;;;;;;;5051762;28;20055;-60
2021/07/18 06:33:36;;;;;;;5.75;2.95;;;;;;;;;;5024103;28;20029;-60
2021/07/18 06:36:01;;;;;;;6.47;2.90;;;;;;;;;;5033697;28;20036;-60
2021/07/18 06:38:27;;;;;;;4.97;2.50;;;;;;;;;;5037478;28;20037;-61
2021/07/18 06:40:55;;;;;;;7.45;3.15;;;;;;;;;;5035590;28;20570;-61
2021/07/18 06:43:21;;;;;;;8.50;2.95;;;;;;;;;;5035857;28;20045;-61
2021/07/18 06:45:46;;;;;;;5.10;2.78;;;;;;;;;;5024870;28;20074;-59
2021/07/18 06:48:12;;;;;;;5.53;2.83;;;;;;;;;;5039503;28;20056;-60
2021/07/18 06:50:43;;;;;;;7.53;2.83;;;;;;;;;;5034003;28;20124;-61
2021/07/18 06:53:08;;;;;;;6.57;2.58;;;;;;;;;;5035588;28;20024;-61
2021/07/18 06:55:35;;;;;;;5.65;2.42;;;;;;;;;;5022741;28;20040;-60
2021/07/18 06:58:01;;;;;;;4.90;3.00;;;;;;;;;;5038794;28;20439;-60
2021/07/18 07:00:32;;;;;;;6.15;2.67;;;;;;;;;;5034222;28;20896;-60
2021/07/18 07:02:57;;;;;;;7.80;2.72;;;;;;;;;;5018009;28;20078;-61
2021/07/18 07:05:25;;;;;;;7.93;2.95;;;;;;;;;;5034673;28;20128;-61
2021/07/18 07:07:53;;;;;;;3.78;2.60;;;;;;;;;;5034418;28;20032;-61
2021/07/18 07:10:19;;;;;;;5.80;2.40;;;;;;;;;;5021594;28;20078;-61
2021/07/18 07:12:48;;;;;;;4.80;2.67;;;;;;;;;;5034664;28;20021;-61
2021/07/18 07:15:16;;;;;;;7.05;3.05;;;;;;;;;;5034078;28;20086;-61
2021/07/18 07:17:42;;;;;;;3.60;2.25;;;;;;;;;;5033083;28;20137;-62
2021/07/18 07:20:11;;;;;;;4.50;2.45;;;;;;;;;;5022488;28;20508;-61
2021/07/18 07:22:37;;;;;;;7.15;2.33;;;;;;;;;;5033118;28;20036;-61
2021/07/18 07:25:05;;;;;;;5.25;2.65;;;;;;;;;;5035725;28;20489;-61
2021/07/18 07:27:31;;;;;;;4.13;1.85;;;;;;;;;;5050219;28;20041;-61
2021/07/18 07:29:56;;;;;;;3.40;2.08;;;;;;;;;;5034105;28;20025;-62
2021/07/18 07:32:22;;;;;;;4.45;1.90;;;;;;;;;;5033036;28;20048;-59
2021/07/18 07:34:49;;;;;;;5.30;2.10;;;;;;;;;;5033772;28;20024;-61
2021/07/18 07:37:15;;;;;;;3.65;2.10;;;;;;;;;;5036655;28;20036;-61
2021/07/18 07:39:41;;;;;;;3.40;1.63;;;;;;;;;;5034768;28;20044;-62
2021/07/18 07:42:07;;;;;;;2.70;1.58;;;;;;;;;;5034446;28;20036;-62
2021/07/18 07:44:33;;;;;;;2.92;1.90;;;;;;;;;;5033957;28;20108;-61
2021/07/18 07:46:59;;;;;;;5.30;1.90;;;;;;;;;;5033979;28;20032;-62
2021/07/18 07:49:25;;;;;;;4.18;1.80;;;;;;;;;;5033448;28;20029;-61
2021/07/18 07:51:50;;;;;;;3.08;1.67;;;;;;;;;;5035932;28;20515;-62
2021/07/18 07:54:16;;;;;;;6.13;1.60;;;;;;;;;;5035340;28;20036;-63
2021/07/18 07:56:42;;;;;;;2.30;1.50;;;;;;;;;;5032374;28;20041;-61
2021/07/18 07:59:11;;;;;;;3.15;1.52;;;;;;;;;;5033302;28;20277;-62
2021/07/18 08:01:37;;;;;;;4.10;1.48;;;;;;;;;;5034378;28;20140;-61
2021/07/18 08:04:03;;;;;;;1.75;1.50;;;;;;;;;;5034823;28;20029;-62
2021/07/18 08:06:28;;;;;;;3.65;1.67;;;;;;;;;;5018794;28;20030;-63
2021/07/18 08:08:56;;;;;;;1.77;1.45;;;;;;;;;;5033277;28;20600;-61
2021/07/18 08:11:23;;;;;;;4.63;1.45;;;;;;;;;;5036051;28;20040;-61
2021/07/18 08:13:53;;;;;;;2.95;1.80;;;;;;;;;;5031716;28;20028;-62
2021/07/18 08:16:23;;;;;;;5.03;2.60;;;;;;;;;;5032947;28;20033;-63
2021/07/18 08:18:51;;;;;;;2.92;1.38;;;;;;;;;;5032682;28;20105;-60
2021/07/18 08:21:22;;;;;;;4.85;1.25;;;;;;;;;;5034717;28;20040;-61
2021/07/18 08:23:52;;;;;;;3.40;1.50;;;;;;;;;;5037438;28;20574;-62
2021/07/18 08:26:20;;;;;;;5.15;1.90;;;;;;;;;;5034012;28;20079;-62
2021/07/18 08:28:48;;;;;;;9.85;1.85;;;;;;;;;;5033444;28;20481;-61
2021/07/18 08:31:13;;;;;;;3.85;1.48;;;;;;;;;;5023920;28;20078;-62
2021/07/18 08:33:43;;;;;;;4.22;1.67;;;;;;;;;;5050502;28;20120;-61
2021/07/18 08:36:08;;;;;;;4.22;1.67;;;;;;;;;;5039025;28;20049;-61
2021/07/18 08:38:36;;;;;;;5.63;1.70;;;;;;;;;;5041026;28;20060;-62
2021/07/18 08:41:02;;;;;;;3.65;1.60;;;;;;;;;;5036729;28;20896;-62
2021/07/18 08:43:31;;;;;;;1.88;1.33;;;;;;;;;;5027899;28;20024;-60
2021/07/18 08:45:58;;;;;;;1.92;1.10;;;;;;;;;;5037497;28;20037;-59
2021/07/18 08:48:27;;;;;;;1.85;1.30;;;;;;;;;;5036867;28;21084;-61
2021/07/18 08:50:54;;;;;;;3.60;1.08;;;;;;;;;;5036050;28;20052;-59
2021/07/18 08:53:26;;;;;;;3.13;1.38;;;;;;;;;;5037167;28;20048;-62
2021/07/18 08:55:55;;;;;;;1.98;0.90;;;;;;;;;;5035987;28;20020;-62
2021/07/18 08:58:22;;;;;;;2.42;1.15;;;;;;;;;;5036167;28;20012;-60
2021/07/18 09:00:48;;;;;;;2.25;1.05;;;;;;;;;;5036981;28;20444;-61
2021/07/18 09:03:16;;;;;;;1.40;0.82;;;;;;;;;;5037374;28;20083;-60
2021/07/18 09:05:42;;;;;;;0.98;0.80;;;;;;;;;;5038472;28;20037;-61
2021/07/18 09:08:19;;;;;;;2.65;1.10;;;;;;;;;;5036018;28;20028;-61
2021/07/18 09:10:46;;;;;;;2.97;1.02;;;;;;;;;;5035866;28;20169;-62
2021/07/18 09:13:12;;;;;;;1.63;0.65;;;;;;;;;;5037632;28;20062;-61
2021/07/18 09:15:49;;;;;;;1.65;0.63;;;;;;;;;;5037197;28;20033;-61
2021/07/18 09:18:21;;;;;;;2.72;0.95;;;;;;;;;;5052192;28;20052;-63
2021/07/18 09:20:47;;;;;;;2.53;0.85;;;;;;;;;;5036653;28;20039;-60
2021/07/18 09:23:28;;;;;;;2.55;0.95;;;;;;;;;;5034152;28;20025;-62
2021/07/18 09:26:13;;;;;;;1.77;0.70;;;;;;;;;;5053410;28;20091;-59
2021/07/18 09:28:39;;;;;;;2.67;0.80;;;;;;;;;;5036835;28;20029;-61
2021/07/18 09:31:28;;;;;;;2.05;0.57;;;;;;;;;;5037183;28;20039;-61
2021/07/18 09:34:13;;;;;;;0.90;0.60;;;;;;;;;;5053418;28;20032;-60
2021/07/18 09:36:39;;;;;;;1.48;0.70;;;;;;;;;;5042500;28;20075;-61
2021/07/18 09:39:11;;;;;;;3.90;0.70;;;;;;;;;;5036783;28;20111;-60
2021/07/18 09:41:37;;;;;;;;;;;;;;;;;;5038022;28;20119;-62
2021/07/18 09:44:03;;;;;;;1.52;0.80;;;;;;;;;;5039418;28;19916;-62
2021/07/18 09:46:32;;;;;;;1.40;0.90;;;;;;;;;;5053382;28;20624;-62
2021/07/18 09:49:00;;;;;;;1.73;0.60;;;;;;;;;;5033348;28;20025;-61
2021/07/18 09:51:28;;;;;;;1.25;0.65;;;;;;;;;;5036670;28;20025;-61
2021/07/18 09:54:14;;;;;;;2.95;1.20;;;;;;;;;;5038209;28;20025;-60
2021/07/18 09:56:40;;;;;;;2.25;0.75;;;;;;;;;;5038109;28;20037;-59
2021/07/18 09:59:06;;;;;;;1.83;0.75;;;;;;;;;;5035527;28;20920;-60
2021/07/18 10:01:33;;;;;;;1.23;0.88;;;;;;;;;;5052532;28;20033;-60
2021/07/18 10:03:58;;;;;;;2.05;0.88;;;;;;;;;;5040141;28;20039;-62
2021/07/18 10:06:25;;;;;;;1.77;0.90;;;;;;;;;;5035257;28;20048;-61
2021/07/18 10:08:52;;;;;;;3.08;1.08;;;;;;;;;;5036406;28;20033;-61
2021/07/18 10:11:21;;;;;;;2.10;0.73;;;;;;;;;;5039461;28;20020;-61
2021/07/18 10:13:50;;;;;;;1.17;0.90;;;;;;;;;;5033502;28;20032;-61
2021/07/18 10:16:18;;;;;;;2.70;0.95;;;;;;;;;;5039095;28;20052;-61
2021/07/18 10:18:45;;;;;;;3.47;0.95;;;;;;;;;;5035036;28;20094;-60
2021/07/18 10:21:14;;;;;;;1.88;1.05;;;;;;;;;;5036185;28;20025;-60
2021/07/18 10:23:40;;;;;;;2.97;1.00;;;;;;;;;;5036900;28;20029;-62
2021/07/18 10:26:07;;;;;;;2.53;0.90;;;;;;;;;;5036428;28;20075;-61
2021/07/18 10:28:35;;;;;;;2.95;1.02;;;;;;;;;;5035523;28;20029;-61
2021/07/18 10:31:05;;;;;;;1.95;0.85;;;;;;;;;;5036320;28;20033;-60
2021/07/18 10:33:31;;;;;;;2.17;0.88;;;;;;;;;;5019186;28;20032;-62
2021/07/18 10:35:57;;;;;;;5.68;1.08;;;;;;;;;;5036056;28;20036;-62
2021/07/18 10:38:24;;;;;;;8.75;1.58;;;;;;;;;;5036994;28;20036;-62
2021/07/18 10:40:50;;;;;;;3.78;1.10;;;;;;;;;;5041146;28;21091;-60
2021/07/18 10:43:36;;;;;;;1.98;0.90;;;;;;;;;;5040114;28;20040;-63
2021/07/18 10:46:03;;;;;;;2.08;0.80;;;;;;;;;;5035514;28;20428;-61
2021/07/18 10:48:48;;;;;;;3.10;1.15;;;;;;;;;;5032965;28;20036;-62
2021/07/18 10:51:17;;;;;;;3.42;1.10;;;;;;;;;;5034206;28;20036;-62
2021/07/18 10:53:43;;;;;;;2.72;0.65;;;;;;;;;;5033790;28;20037;-64
2021/07/18 10:56:10;;;;;;;2.45;1.00;;;;;;;;;;5050616;28;20037;-63
2021/07/18 10:58:39;;;;;;;2.75;1.25;;;;;;;;;;5031361;28;20024;-62
2021/07/18 11:01:10;;;;;;;2.88;1.15;;;;;;;;;;5040918;28;20553;-63
2021/07/18 11:03:40;;;;;;;2.88;1.10;;;;;;;;;;5023144;28;20327;-61
2021/07/18 11:06:21;;;;;;;4.57;1.10;;;;;;;;;;5035554;28;20082;-61
2021/07/18 11:09:18;;;;;;;2.22;1.05;;;;;;;;;;5036183;28;20028;-61
2021/07/18 11:11:57;;;;;;;4.30;1.00;;;;;;;;;;5021220;28;20060;-59
2021/07/18 11:14:27;;;;;;;3.47;0.98;;;;;;;;;;5034739;28;20032;-60
2021/07/18 11:16:57;;;;;;;1.70;0.90;;;;;;;;;;5035191;28;20130;-62
2021/07/18 11:19:35;;;;;;;5.47;0.80;;;;;;;;;;5035269;28;20091;-61
2021/07/18 11:22:09;;;;;;;1.98;1.00;;;;;;;;;;5035207;28;20025;-60
2021/07/18 11:24:45;;;;;;;2.97;1.00;;;;;;;;;;5034936;28;20029;-59
2021/07/18 11:27:23;;;;;;;1.15;0.80;;;;;;;;;;5035869;28;20040;-62
2021/07/18 11:29:52;;;;;;;1.40;0.85;;;;;;;;;;5033371;28;20044;-61
2021/07/18 11:32:20;;;;;;;2.20;0.80;;;;;;;;;;5036965;28;20500;-61
2021/07/18 11:34:48;;;;;;;1.98;0.80;;;;;;;;;;5049160;28;20025;-61
2021/07/18 11:37:16;;;;;;;2.50;0.98;;;;;;;;;;5035797;28;20086;-61
2021/07/18 11:39:45;;;;;;;4.97;0.98;;;;;;;;;;5033796;28;20067;-61
2021/07/18 11:42:11;;;;;;;2.25;0.85;;;;;;;;;;5031198;28;22085;-59
2021/07/18 11:44:41;;;;;;;4.55;0.82;;;;;;;;;;5034315;28;22034;-61
2021/07/18 11:47:14;;;;;;;2.58;0.63;;;;;;;;;;5030899;28;20040;-59
2021/07/18 11:49:45;;;;;;;1.58;0.63;;;;;;;;;;5040987;28;20074;-62
2021/07/18 11:52:12;;;;;;;4.65;0.98;;;;;;;;;;5049560;28;20032;-62
2021/07/18 11:54:40;;;;;;;6.80;1.27;;;;;;;;;;5049856;28;20039;-61
2021/07/18 11:57:13;;;;;;;3.80;1.10;;;;;;;;;;5034193;28;20075;-62
2021/07/18 11:59:41;;;;;;;5.45;1.15;;;;;;;;;;5034144;28;20033;-61
2021/07/18 12:02:12;;;;;;;4.88;0.90;;;;;;;;;;5035386;28;20467;-60
2021/07/18 12:04:40;;;;;;;9.07;1.10;;;;;;;;;;5031354;28;20079;-61
2021/07/18 12:07:10;;;;;;;3.83;1.00;;;;;;;;;;5035653;28;20120;-63
2021/07/18 12:09:43;;;;;;;5.63;1.42;;;;;;;;;;5034992;28;20151;-61
2021/07/18 12:12:09;;;;;;;;;;;;;;;;;;5033520;28;20703;-60
2021/07/18 12:14:35;;;;;;;1.75;1.13;;;;;;;;;;5033555;28;19916;-60
2021/07/18 12:17:06;;;;;;;3.20;0.98;;;;;;;;;;5031497;28;20694;-60
2021/07/18 12:19:34;;;;;;;4.80;1.40;;;;;;;;;;5032845;28;20459;-60
2021/07/18 12:22:06;;;;;;;3.00;1.17;;;;;;;;;;5031206;28;20044;-61
2021/07/18 12:24:37;;;;;;;3.50;1.20;;;;;;;;;;5033621;28;20041;-59
2021/07/18 12:27:12;;;;;;;3.75;1.05;;;;;;;;;;5033732;28;20032;-60
2021/07/18 12:29:39;;;;;;;5.15;1.25;;;;;;;;;;5033260;28;20753;-63
2021/07/18 12:32:08;;;;;;;9.02;1.80;;;;;;;;;;5035247;28;20116;-61
2021/07/18 12:34:42;;;;;;;3.40;1.50;;;;;;;;;;5049220;28;20111;-60
2021/07/18 12:37:11;;;;;;;7.47;1.23;;;;;;;;;;5016945;28;20516;-62
2021/07/18 12:39:38;;;;;;;6.53;1.85;;;;;;;;;;5035341;28;20044;-63
2021/07/18 12:42:06;;;;;;;3.88;1.48;;;;;;;;;;5035241;28;20085;-61
2021/07/18 12:44:42;;;;;;;4.50;1.27;;;;;;;;;;5033350;28;20040;-62
2021/07/18 12:47:35;;;;;;;5.72;1.20;;;;;;;;;;5036350;28;20039;-59
2021/07/18 12:50:27;;;;;;;3.53;1.07;;;;;;;;;;5031934;28;20114;-62
2021/07/18 12:53:13;;;;;;;5.55;1.60;;;;;;;;;;5034438;28;20112;-61
2021/07/18 12:55:45;;;;;;;4.15;1.13;;;;;;;;;;5049099;28;20029;-62
2021/07/18 12:58:10;;;;;;;2.08;1.05;;;;;;;;;;5037894;28;20068;-59
2021/07/18 13:00:38;;;;;;;3.72;1.30;;;;;;;;;;5031380;28;20033;-62
2021/07/18 13:03:12;;;;;;;4.78;1.00;;;;;;;;;;5048888;28;20045;-61
2021/07/18 13:05:38;;;;;;;3.00;1.23;;;;;;;;;;5034895;28;20040;-62
2021/07/18 13:08:04;;;;;;;6.43;1.33;;;;;;;;;;5034890;28;20044;-59
2021/07/18 13:10:40;;;;;;;3.00;1.13;;;;;;;;;;5033455;28;20037;-60
2021/07/18 13:13:08;;;;;;;3.80;0.90;;;;;;;;;;5031768;28;20106;-63
2021/07/18 13:15:35;;;;;;;4.88;2.17;;;;;;;;;;5039316;28;20036;-63
2021/07/18 13:18:02;;;;;;;4.55;1.42;;;;;;;;;;5034456;28;20049;-62
2021/07/18 13:20:32;;;;;;;5.32;1.38;;;;;;;;;;5035444;28;20071;-65
2021/07/18 13:23:05;;;;;;;5.10;1.20;;;;;;;;;;5038256;28;20051;-61
2021/07/18 13:25:34;;;;;;;5.07;1.30;;;;;;;;;;5041703;28;20025;-60
2021/07/18 13:28:04;;;;;;;4.60;1.10;;;;;;;;;;5052896;28;20282;-60
2021/07/18 13:30:33;;;;;;;5.93;1.70;;;;;;;;;;5037095;28;20031;-60
2021/07/18 13:33:14;;;;;;;4.70;1.65;;;;;;;;;;5035813;28;20129;-62
2021/07/18 13:35:45;;;;;;;6.38;1.40;;;;;;;;;;5039426;28;20025;-61
2021/07/18 13:38:21;;;;;;;4.28;1.20;;;;;;;;;;5035612;28;20041;-62
2021/07/18 13:40:48;;;;;;;6.40;1.55;;;;;;;;;;5042927;28;20025;-62
2021/07/18 13:43:15;;;;;;;8.63;1.30;;;;;;;;;;5035638;28;20029;-61
2021/07/18 13:45:46;;;;;;;3.90;1.27;;;;;;;;;;5037837;28;20044;-61
2021/07/18 13:48:14;;;;;;;6.80;1.63;;;;;;;;;;5050343;28;20142;-60
2021/07/18 13:50:42;;;;;;;5.25;1.40;;;;;;;;;;5036446;28;20025;-60
2021/07/18 13:53:08;;;;;;;2.75;1.17;;;;;;;;;;5036323;28;20068;-61
2021/07/18 13:55:34;;;;;;;2.75;1.23;;;;;;;;;;5037548;28;20442;-61
2021/07/18 13:58:00;;;;;;;2.60;1.30;;;;;;;;;;5037106;28;20062;-61
2021/07/18 14:00:31;;;;;;;2.63;0.88;;;;;;;;;;5026234;28;20029;-61
2021/07/18 14:02:57;;;;;;;4.10;1.33;;;;;;;;;;5034625;28;20036;-61
2021/07/18 14:05:22;;;;;;;4.25;1.23;;;;;;;;;;5036471;28;20033;-62
2021/07/18 14:07:50;;;;;;;2.45;0.80;;;;;;;;;;5037059;28;20034;-61
2021/07/18 14:10:18;;;;;;;4.80;1.30;;;;;;;;;;5021157;28;20032;-60
2021/07/18 14:12:47;;;;;;;8.05;1.70;;;;;;;;;;5035102;28;20028;-61
2021/07/18 14:15:14;;;;;;;6.88;1.38;;;;;;;;;;5033596;28;20028;-62
2021/07/18 14:17:48;;;;;;;4.88;1.33;;;;;;;;;;5038182;28;20044;-61
2021/07/18 14:20:20;;;;;;;4.90;1.98;;;;;;;;;;5034789;28;20037;-61
2021/07/18 14:22:49;;;;;;;5.97;1.42;;;;;;;;;;5035033;28;20039;-61
2021/07/18 14:25:16;;;;;;;3.97;1.30;;;;;;;;;;5036712;28;20030;-61
2021/07/18 14:27:42;;;;;;;5.97;1.65;;;;;;;;;;5051491;28;20040;-63
2021/07/18 14:30:09;;;;;;;2.20;1.08;;;;;;;;;;5037985;28;20031;-62
2021/07/18 14:32:34;;;;;;;2.30;1.13;;;;;;;;;;5034452;28;20055;-61
2021/07/18 14:35:08;;;;;;;0.80;0.77;;;;;;;;;;5036370;28;20737;-61
2021/07/18 14:37:38;;;;;;;5.68;0.82;;;;;;;;;;5035651;28;20051;-62
2021/07/18 14:40:05;;;;;;;2.47;0.82;;;;;;;;;;5036319;28;20613;-59
2021/07/18 14:42:31;;;;;;;4.50;1.00;;;;;;;;;;5036608;28;20025;-60
2021/07/18 14:44:57;;;;;;;1.48;1.13;;;;;;;;;;5033438;28;20103;-61
2021/07/18 14:47:27;;;;;;;2.90;1.25;;;;;;;;;;5043037;28;20039;-62
2021/07/18 14:49:53;;;;;;;6.68;1.85;;;;;;;;;;5032734;28;20021;-62
2021/07/18 14:52:20;;;;;;;2.78;1.25;;;;;;;;;;5036686;28;20028;-62